createdAt,value
2022-10-05T11:15:42.066Z,19.60
2022-10-05T11:18:48.745Z,19.60
2022-10-05T11:25:41.320Z,19.60
2022-10-05T11:28:39.325Z,19.70
2022-10-05T11:32:00.722Z,19.70
2022-10-05T11:38:21.607Z,19.70
2022-10-05T11:49:08.389Z,19.70
2022-10-05T11:55:44.948Z,19.70
2022-10-05T11:58:47.184Z,19.80
2022-10-05T12:12:30.772Z,19.80
2022-10-05T12:15:30.444Z,19.80
2022-10-05T12:18:44.975Z,19.90
2022-10-05T12:28:44.330Z,19.80
2022-10-05T12:31:54.801Z,19.80
2022-10-05T12:35:12.144Z,19.80
2022-10-05T12:41:45.592Z,19.80
2022-10-05T12:44:59.358Z,19.80
2022-10-05T12:51:45.117Z,19.90
2022-10-05T12:58:18.074Z,19.90
2022-10-05T13:01:37.630Z,20.00
2022-10-05T13:08:11.951Z,19.80
2022-10-05T13:14:43.357Z,19.70
2022-10-05T13:24:47.876Z,19.70
2022-10-05T13:34:36.159Z,19.60
2022-10-05T13:37:52.537Z,19.60
2022-10-05T13:40:45.136Z,19.60
2022-10-05T13:47:38.511Z,19.60
2022-10-05T14:00:48.958Z,19.50
2022-10-05T14:03:39.536Z,19.40
2022-10-05T14:06:32.626Z,19.50
2022-10-05T14:25:16.275Z,19.30
2022-10-05T14:28:03.272Z,19.40
2022-10-05T14:36:41.506Z,19.30
2022-10-05T14:49:52.218Z,19.30
2022-10-05T14:56:10.002Z,19.30
2022-10-05T14:59:28.191Z,19.30
2022-10-05T15:05:34.974Z,19.30
2022-10-05T15:12:02.501Z,19.20
2022-10-05T15:18:32.190Z,19.20
2022-10-05T15:25:36.309Z,19.20
2022-10-05T15:35:07.733Z,19.10
2022-10-05T15:41:41.405Z,19.10
2022-10-05T15:45:13.611Z,19.10
2022-10-05T16:01:30.569Z,19.00
2022-10-05T16:10:56.463Z,18.90
2022-10-05T16:13:56.431Z,19.00
2022-10-05T16:20:22.388Z,18.90
2022-10-05T16:26:54.323Z,19.00
2022-10-05T16:30:14.900Z,18.90
2022-10-05T16:33:27.739Z,18.90
2022-10-05T16:36:40.854Z,19.00
2022-10-05T16:49:40.462Z,18.90
2022-10-05T16:52:30.534Z,19.00
2022-10-05T16:58:17.945Z,19.00
2022-10-05T17:01:14.526Z,18.90
2022-10-05T17:04:22.423Z,18.80
2022-10-05T17:14:17.599Z,18.90
2022-10-05T17:34:36.912Z,18.90
2022-10-05T17:40:42.319Z,18.90
2022-10-05T17:43:45.316Z,18.90
2022-10-05T18:07:21.518Z,18.90
2022-10-05T18:10:36.660Z,19.00
2022-10-05T18:13:42.612Z,18.90
2022-10-05T18:19:31.332Z,19.00
2022-10-05T18:26:04.159Z,18.90
2022-10-05T18:29:23.485Z,19.00
2022-10-05T18:32:09.462Z,19.00
2022-10-05T18:35:09.023Z,19.00
2022-10-05T18:41:13.687Z,19.00
2022-10-05T18:44:16.373Z,18.90
2022-10-05T18:47:15.108Z,18.90
2022-10-05T18:50:24.288Z,19.10
2022-10-05T18:53:51.759Z,19.00
2022-10-05T18:56:34.513Z,18.90
2022-10-05T18:59:50.676Z,19.00
2022-10-05T19:03:01.477Z,19.00
2022-10-05T19:06:20.363Z,19.00
2022-10-05T19:09:17.828Z,19.00
2022-10-05T19:12:31.068Z,19.10
2022-10-05T19:19:12.532Z,19.00
2022-10-05T19:26:03.047Z,19.00
2022-10-05T19:39:24.371Z,19.10
2022-10-05T19:42:45.788Z,19.10
2022-10-05T19:48:41.321Z,19.10
2022-10-05T19:51:51.898Z,19.10
2022-10-05T20:00:41.435Z,19.10
2022-10-05T20:25:27.503Z,19.10
2022-10-05T20:31:07.853Z,19.00
2022-10-05T20:33:57.591Z,19.00
2022-10-05T20:51:25.362Z,19.00
2022-10-05T21:00:22.439Z,19.00
2022-10-05T21:06:21.662Z,19.00
2022-10-05T21:11:47.374Z,19.10
2022-10-05T21:14:31.626Z,19.00
2022-10-05T21:20:30.833Z,19.00
2022-10-05T21:23:20.691Z,19.00
2022-10-05T21:25:56.950Z,19.00
2022-10-05T21:31:56.335Z,19.00
2022-10-05T21:40:32.711Z,19.00
2022-10-05T21:43:31.940Z,19.00
2022-10-05T21:49:07.539Z,19.00
2022-10-05T21:51:57.576Z,19.10
2022-10-05T21:54:37.438Z,19.10
2022-10-05T21:57:40.596Z,19.00
2022-10-05T22:06:14.431Z,19.00
2022-10-05T22:14:35.024Z,19.10
2022-10-05T22:17:53.637Z,19.10
2022-10-05T22:26:16.854Z,19.10
2022-10-05T22:28:57.296Z,19.00
2022-10-05T22:34:43.925Z,19.00
2022-10-05T22:37:26.523Z,19.10
2022-10-05T22:39:58.118Z,19.10
2022-10-05T22:42:41.258Z,19.10
2022-10-05T22:45:40.054Z,19.00
2022-10-05T22:51:25.305Z,19.10
2022-10-05T22:59:55.755Z,19.10
2022-10-05T23:02:31.983Z,19.00
2022-10-05T23:05:08.346Z,19.10
2022-10-05T23:13:27.183Z,19.10
2022-10-05T23:16:21.850Z,19.00
2022-10-05T23:25:09.040Z,19.00
2022-10-05T23:27:42.384Z,19.10
2022-10-05T23:30:27.741Z,19.00
2022-10-05T23:33:01.988Z,19.00
2022-10-05T23:38:26.989Z,19.00
2022-10-05T23:41:09.630Z,19.00
2022-10-05T23:50:15.036Z,19.10
2022-10-05T23:58:40.426Z,19.00
